createdAt,value
2019-06-07T00:01:35.405Z,7.67
2019-06-07T00:04:01.549Z,13.98
2019-06-07T00:06:27.693Z,9.68
2019-06-07T00:08:53.690Z,6.42
2019-06-07T00:11:20.668Z,10.43
2019-06-07T00:13:46.816Z,4.83
2019-06-07T00:16:14.972Z,6.17
2019-06-07T00:18:40.835Z,11.22
2019-06-07T00:21:08.923Z,5.33
2019-06-07T00:23:34.945Z,5.58
2019-06-07T00:26:01.051Z,6.30
2019-06-07T00:28:27.054Z,7.97
2019-06-07T00:30:53.169Z,4.95
2019-06-07T00:33:23.990Z,7.35
2019-06-07T00:35:47.211Z,8.20
2019-06-07T00:38:14.283Z,7.47
2019-06-07T00:40:40.625Z,5.08
2019-06-07T00:43:06.774Z,6.17
2019-06-07T00:45:32.883Z,7.65
2019-06-07T00:47:58.930Z,6.62
2019-06-07T00:50:25.024Z,5.75
2019-06-07T00:55:22.231Z,7.00
2019-06-07T00:57:47.122Z,6.12
2019-06-07T01:00:15.030Z,7.10
2019-06-07T01:02:42.313Z,8.13
2019-06-07T01:05:09.213Z,6.70
2019-06-07T01:07:35.343Z,6.37
2019-06-07T01:10:02.794Z,5.97
2019-06-07T01:12:28.928Z,15.93
2019-06-07T01:14:55.041Z,5.83
2019-06-07T01:17:41.314Z,6.97
2019-06-07T01:19:56.547Z,7.22
2019-06-07T01:22:27.114Z,8.73
2019-06-07T01:24:50.761Z,7.20
2019-06-07T01:27:18.997Z,5.97
2019-06-07T01:29:45.139Z,8.48
2019-06-07T01:32:11.270Z,6.80
2019-06-07T01:34:37.336Z,11.45
2019-06-07T01:37:03.353Z,5.45
2019-06-07T01:39:31.685Z,9.10
2019-06-07T01:41:57.180Z,8.05
2019-06-07T01:44:27.355Z,11.25
2019-06-07T01:46:51.108Z,5.70
2019-06-07T01:49:17.245Z,8.60
2019-06-07T01:51:43.279Z,5.85
2019-06-07T01:56:37.131Z,5.58
2019-06-07T01:59:03.372Z,6.40
2019-06-07T02:01:34.940Z,9.00
2019-06-07T02:03:57.454Z,6.33
2019-06-07T02:06:27.134Z,8.08
2019-06-07T02:08:51.563Z,4.47
2019-06-07T02:11:18.098Z,7.08
2019-06-07T02:13:45.389Z,6.75
2019-06-07T02:16:11.423Z,5.80
2019-06-07T02:18:37.432Z,5.90
2019-06-07T02:21:03.734Z,5.33
2019-06-07T02:23:31.600Z,6.00
2019-06-07T02:25:57.661Z,6.28
2019-06-07T02:28:36.521Z,7.90
2019-06-07T02:31:00.228Z,7.97
2019-06-07T02:33:24.057Z,5.37
2019-06-07T02:35:47.524Z,7.85
2019-06-07T02:38:13.543Z,11.28
2019-06-07T02:40:39.584Z,6.17
2019-06-07T02:43:05.892Z,10.30
2019-06-07T02:45:37.599Z,5.67
2019-06-07T02:47:59.836Z,12.33
2019-06-07T02:50:28.317Z,7.15
2019-06-07T02:52:53.861Z,8.18
2019-06-07T02:55:19.952Z,8.18
2019-06-07T02:57:45.957Z,7.30
2019-06-07T03:00:42.498Z,6.58
2019-06-07T03:02:43.035Z,8.48
2019-06-07T03:05:09.622Z,9.00
2019-06-07T03:07:39.475Z,6.85
2019-06-07T03:10:08.884Z,9.20
2019-06-07T03:12:39.253Z,11.43
2019-06-07T03:15:05.658Z,11.97
2019-06-07T03:17:40.201Z,7.55
2019-06-07T03:20:07.706Z,9.40
2019-06-07T03:22:39.875Z,9.40
2019-06-07T03:25:04.716Z,8.20
2019-06-07T03:27:37.116Z,10.65
2019-06-07T03:29:59.448Z,6.35
2019-06-07T03:32:25.459Z,8.00
2019-06-07T03:34:51.359Z,7.97
2019-06-07T03:37:17.374Z,8.25
2019-06-07T03:39:43.480Z,9.33
2019-06-07T03:42:09.551Z,8.05
2019-06-07T03:44:38.245Z,16.45
2019-06-07T03:47:03.492Z,9.58
2019-06-07T03:49:31.516Z,6.40
2019-06-07T03:51:57.427Z,11.55
2019-06-07T03:54:23.560Z,9.80
2019-06-07T03:56:49.508Z,8.35
2019-06-07T03:59:15.624Z,10.25
2019-06-07T04:01:41.738Z,8.53
2019-06-07T04:04:07.746Z,11.70
2019-06-07T04:06:36.189Z,13.65
2019-06-07T04:09:01.546Z,10.72
2019-06-07T04:11:27.798Z,9.43
2019-06-07T04:13:54.055Z,10.80
2019-06-07T04:16:20.166Z,7.35
2019-06-07T04:18:46.068Z,7.97
2019-06-07T04:21:12.181Z,10.50
2019-06-07T04:23:44.913Z,10.90
2019-06-07T04:26:06.190Z,8.33
2019-06-07T04:29:24.863Z,10.13
2019-06-07T04:31:01.104Z,7.42
2019-06-07T04:33:28.435Z,8.20
2019-06-07T04:35:55.124Z,8.75
2019-06-07T04:38:22.031Z,7.05
2019-06-07T04:40:50.041Z,7.17
2019-06-07T04:43:16.043Z,8.10
2019-06-07T04:45:50.727Z,12.75
2019-06-07T04:48:10.286Z,11.50
2019-06-07T04:50:40.428Z,16.12
2019-06-07T04:53:06.537Z,10.13
2019-06-07T04:55:34.076Z,9.40
2019-06-07T04:58:00.578Z,9.05
2019-06-07T05:00:54.282Z,12.37
2019-06-07T05:03:01.615Z,11.48
2019-06-07T05:05:29.297Z,12.63
2019-06-07T05:07:55.573Z,9.63
2019-06-07T05:10:23.886Z,12.33
2019-06-07T05:12:50.517Z,13.78
2019-06-07T05:15:16.780Z,14.45
2019-06-07T05:17:44.939Z,10.68
2019-06-07T05:20:11.208Z,12.47
2019-06-07T05:22:42.047Z,9.70
2019-06-07T05:25:06.285Z,8.60
2019-06-07T05:27:34.345Z,11.30
2019-06-07T05:30:13.734Z,10.35
2019-06-07T05:32:32.859Z,12.37
2019-06-07T05:34:58.096Z,12.27
2019-06-07T05:37:24.445Z,10.13
2019-06-07T05:39:50.773Z,12.45
2019-06-07T05:42:17.029Z,10.65
2019-06-07T05:44:45.514Z,20.23
2019-06-07T05:47:11.510Z,14.83
2019-06-07T05:49:40.653Z,11.70
2019-06-07T05:52:05.954Z,12.25
2019-06-07T05:54:35.051Z,11.53
2019-06-07T05:57:00.479Z,10.82
2019-06-07T05:59:26.735Z,10.00
2019-06-07T06:02:01.971Z,9.70
2019-06-07T06:04:21.242Z,14.25
2019-06-07T06:06:47.678Z,11.60
2019-06-07T06:09:14.386Z,17.42
2019-06-07T06:11:49.460Z,11.55
2019-06-07T06:14:11.112Z,17.62
2019-06-07T06:16:39.867Z,15.03
2019-06-07T06:19:07.385Z,13.10
2019-06-07T06:21:33.647Z,11.55
2019-06-07T06:23:59.990Z,9.95
2019-06-07T06:26:26.326Z,11.25
2019-06-07T06:28:52.596Z,10.48
2019-06-07T06:31:18.843Z,11.68
2019-06-07T06:33:46.853Z,13.22
2019-06-07T06:36:13.357Z,13.28
2019-06-07T06:38:39.748Z,17.23
2019-06-07T06:41:15.684Z,12.30
2019-06-07T06:43:38.539Z,11.97
2019-06-07T06:46:05.691Z,16.07
2019-06-07T06:48:32.049Z,12.50
2019-06-07T06:50:58.340Z,9.75
2019-06-07T06:53:24.642Z,10.93
2019-06-07T06:55:51.484Z,10.35
2019-06-07T06:58:17.924Z,11.18
2019-06-07T07:00:59.830Z,13.10
2019-06-07T07:03:56.682Z,11.75
2019-06-07T07:05:48.630Z,12.63
2019-06-07T07:08:13.225Z,11.78
2019-06-07T07:10:45.745Z,12.00
2019-06-07T07:13:12.482Z,15.53
2019-06-07T07:15:38.773Z,12.90
2019-06-07T07:18:08.721Z,10.95
2019-06-07T07:20:33.433Z,10.30
2019-06-07T07:23:00.081Z,13.43
2019-06-07T07:25:37.539Z,12.25
2019-06-07T07:28:01.552Z,18.00
2019-06-07T07:43:13.347Z,15.55
2019-06-07T07:45:40.059Z,11.80
2019-06-07T07:48:15.266Z,15.70
2019-06-07T07:50:34.628Z,11.60
2019-06-07T07:53:54.589Z,14.83
2019-06-07T08:19:04.009Z,19.40
2019-06-07T08:21:28.875Z,19.55
2019-06-07T08:23:58.433Z,20.02
2019-06-07T08:26:23.386Z,17.70
2019-06-07T08:28:53.212Z,19.32
2019-06-07T08:31:17.636Z,18.85
2019-06-07T08:33:47.732Z,18.10
2019-06-07T08:36:21.927Z,15.28
2019-06-07T08:38:47.910Z,15.23
2019-06-07T08:41:12.349Z,15.75
2019-06-07T08:43:39.207Z,18.43
2019-06-07T08:46:07.616Z,16.05
2019-06-07T08:48:33.693Z,18.73
2019-06-07T08:51:06.565Z,23.05
2019-06-07T08:53:28.217Z,19.30
2019-06-07T08:56:00.848Z,32.45
2019-06-07T08:58:22.941Z,17.07
2019-06-07T09:00:49.305Z,19.60
2019-06-07T09:03:15.608Z,20.08
2019-06-07T09:05:41.907Z,19.32
2019-06-07T09:08:28.124Z,15.25
2019-06-07T09:10:36.379Z,16.35
2019-06-07T09:13:07.491Z,16.45
2019-06-07T09:15:34.088Z,19.50
2019-06-07T09:20:43.520Z,19.10
2019-06-07T09:23:16.808Z,22.30
2019-06-07T09:25:55.945Z,21.40
2019-06-07T09:28:17.509Z,18.35
2019-06-07T09:30:43.270Z,20.57
2019-06-07T09:33:10.543Z,18.90
2019-06-07T09:35:37.731Z,17.02
2019-06-07T09:38:16.118Z,20.05
2019-06-07T09:40:32.336Z,21.07
2019-06-07T09:43:48.031Z,21.48
2019-06-07T09:45:26.715Z,20.90
2019-06-07T09:47:53.077Z,18.95
2019-06-07T09:50:21.399Z,18.80
2019-06-07T09:52:58.773Z,19.27
2019-06-07T09:55:24.161Z,23.47
2019-06-07T09:57:44.060Z,21.17
2019-06-07T10:00:39.110Z,21.62
2019-06-07T10:02:42.992Z,19.67
2019-06-07T10:05:14.165Z,18.37
2019-06-07T10:07:37.752Z,23.05
2019-06-07T10:12:32.452Z,21.00
2019-06-07T10:14:58.773Z,20.35
2019-06-07T10:17:25.058Z,19.82
2019-06-07T10:19:51.349Z,22.90
2019-06-07T10:22:17.648Z,19.12
2019-06-07T10:24:43.838Z,23.25
2019-06-07T10:27:10.165Z,21.68
2019-06-07T10:29:36.418Z,18.65
2019-06-07T10:32:02.842Z,17.60
2019-06-07T10:34:29.048Z,21.75
2019-06-07T10:36:55.379Z,20.45
2019-06-07T10:39:21.718Z,19.12
2019-06-07T10:41:47.972Z,21.48
2019-06-07T10:44:14.345Z,21.07
2019-06-07T10:46:40.523Z,21.68
2019-06-07T10:49:07.956Z,18.95
2019-06-07T10:51:34.405Z,20.12
2019-06-07T10:54:00.687Z,18.40
2019-06-07T10:56:26.992Z,17.82
2019-06-07T10:58:53.243Z,20.72
2019-06-07T11:01:19.455Z,18.50
2019-06-07T11:03:45.720Z,19.27
2019-06-07T11:06:12.316Z,20.77
2019-06-07T11:08:40.705Z,19.60
2019-06-07T11:11:07.967Z,21.80
2019-06-07T11:13:34.389Z,20.25
2019-06-07T11:16:00.734Z,20.70
2019-06-07T11:18:27.338Z,18.55
2019-06-07T11:20:53.732Z,18.05
2019-06-07T11:23:28.983Z,19.70
2019-06-07T11:25:55.387Z,25.60
2019-06-07T11:28:21.771Z,19.02
2019-06-07T11:30:48.118Z,22.37
2019-06-07T11:33:16.322Z,18.73
2019-06-07T11:35:42.708Z,19.53
2019-06-07T11:38:08.981Z,20.90
2019-06-07T11:40:36.145Z,18.42
2019-06-07T11:43:02.733Z,17.70
2019-06-07T11:45:29.042Z,16.85
2019-06-07T11:47:55.456Z,16.85
2019-06-07T11:50:21.773Z,16.25
2019-06-07T11:52:48.025Z,18.23
2019-06-07T11:55:15.801Z,20.80
2019-06-07T11:57:42.440Z,16.53
2019-06-07T12:00:13.992Z,19.02
2019-06-07T12:02:40.541Z,15.93
2019-06-07T12:05:07.428Z,14.83
2019-06-07T12:07:33.956Z,15.08
2019-06-07T12:10:00.303Z,19.42
2019-06-07T12:12:27.091Z,19.50
2019-06-07T12:14:53.414Z,18.00
2019-06-07T12:17:19.765Z,16.57
2019-06-07T12:19:46.082Z,15.05
2019-06-07T12:22:13.675Z,15.88
2019-06-07T12:24:40.292Z,19.42
2019-06-07T12:27:06.598Z,17.90
2019-06-07T12:29:34.069Z,18.32
2019-06-07T12:32:00.540Z,17.55
2019-06-07T12:34:26.820Z,14.58
2019-06-07T12:36:53.074Z,15.43
2019-06-07T12:39:20.125Z,18.17
2019-06-07T12:41:46.473Z,14.30
2019-06-07T12:44:12.757Z,23.40
2019-06-07T12:46:38.981Z,17.87
2019-06-07T12:49:05.259Z,16.30
2019-06-07T12:51:31.464Z,16.80
2019-06-07T12:53:57.698Z,13.48
2019-06-07T12:56:24.284Z,14.05
2019-06-07T12:58:50.682Z,14.35
2019-06-07T13:01:18.224Z,15.75
2019-06-07T13:03:44.532Z,14.07
2019-06-07T13:06:10.785Z,14.03
2019-06-07T13:08:36.949Z,17.52
2019-06-07T13:11:14.825Z,13.70
2019-06-07T13:13:31.352Z,17.60
2019-06-07T13:15:57.591Z,14.93
2019-06-07T13:18:25.217Z,14.25
2019-06-07T13:20:55.167Z,15.18
2019-06-07T13:23:20.844Z,13.73
2019-06-07T13:25:47.551Z,18.02
2019-06-07T13:28:13.864Z,16.40
2019-06-07T13:30:40.126Z,15.23
2019-06-07T13:33:06.317Z,16.48
2019-06-07T13:35:32.553Z,16.85
2019-06-07T13:37:59.835Z,17.70
2019-06-07T13:40:26.178Z,16.07
2019-06-07T13:42:52.453Z,14.58
2019-06-07T13:45:20.007Z,15.30
2019-06-07T13:47:46.376Z,15.28
2019-06-07T13:50:13.789Z,12.68
2019-06-07T13:52:40.449Z,11.63
2019-06-07T13:55:09.107Z,12.80
2019-06-07T13:57:35.435Z,13.62
2019-06-07T14:00:09.902Z,13.05
2019-06-07T14:02:30.229Z,12.88
2019-06-07T14:04:56.501Z,12.63
2019-06-07T14:07:23.608Z,26.77
2019-06-07T14:09:50.992Z,31.27
2019-06-07T14:12:17.322Z,56.35
2019-06-07T14:14:43.736Z,39.60
2019-06-07T14:17:10.012Z,50.73
2019-06-07T14:19:36.291Z,32.40
2019-06-07T14:22:02.651Z,65.10
2019-06-07T14:24:29.190Z,17.65
2019-06-07T14:27:07.565Z,12.15
2019-06-07T14:29:36.321Z,15.80
2019-06-07T14:32:04.930Z,15.95
2019-06-07T14:34:32.422Z,19.85
2019-06-07T14:36:59.035Z,15.15
2019-06-07T14:39:25.348Z,15.83
2019-06-07T14:42:07.957Z,29.82
2019-06-07T14:44:19.787Z,19.73
2019-06-07T14:46:46.098Z,15.38
2019-06-07T14:49:12.407Z,16.12
2019-06-07T14:51:38.684Z,12.30
2019-06-07T14:54:04.987Z,10.95
2019-06-07T14:56:33.112Z,11.15
2019-06-07T14:58:59.643Z,11.75
2019-06-07T15:01:26.245Z,12.85
2019-06-07T15:03:52.787Z,10.65
2019-06-07T15:06:19.050Z,13.05
2019-06-07T15:08:45.327Z,12.37
2019-06-07T15:11:14.613Z,12.98
2019-06-07T15:13:41.257Z,12.47
2019-06-07T15:16:07.712Z,13.25
2019-06-07T15:18:33.994Z,14.50
2019-06-07T15:21:00.287Z,12.40
2019-06-07T15:23:27.083Z,17.05
2019-06-07T15:25:53.509Z,14.33
2019-06-07T15:28:19.826Z,12.15
2019-06-07T15:30:46.238Z,11.25
2019-06-07T15:33:12.545Z,13.20
2019-06-07T15:35:39.154Z,12.23
2019-06-07T15:38:05.599Z,12.93
2019-06-07T15:40:33.113Z,12.13
2019-06-07T15:42:59.604Z,11.12
2019-06-07T15:45:25.980Z,12.73
2019-06-07T15:47:52.182Z,15.78
2019-06-07T15:50:18.586Z,12.98
2019-06-07T15:52:44.828Z,11.97
2019-06-07T15:55:11.737Z,15.70
2019-06-07T15:57:39.676Z,15.53
2019-06-07T16:00:11.904Z,11.22
2019-06-07T16:02:39.624Z,15.63
2019-06-07T16:05:06.412Z,11.08
2019-06-07T16:07:34.051Z,15.70
2019-06-07T16:10:00.548Z,10.98
2019-06-07T16:12:26.850Z,13.30
2019-06-07T16:14:53.197Z,11.10
2019-06-07T16:17:19.505Z,15.13
2019-06-07T16:19:46.574Z,13.50
2019-06-07T16:22:13.086Z,10.70
2019-06-07T16:24:39.841Z,19.52
2019-06-07T16:27:06.318Z,12.23
2019-06-07T16:29:32.687Z,13.93
2019-06-07T16:31:58.939Z,11.22
2019-06-07T16:34:25.226Z,8.65
2019-06-07T16:36:51.549Z,11.00
2019-06-07T16:39:17.918Z,14.30
2019-06-07T16:41:44.839Z,10.75
2019-06-07T16:44:14.105Z,20.12
2019-06-07T16:46:40.679Z,10.75
2019-06-07T16:49:07.011Z,9.33
2019-06-07T16:51:33.353Z,10.55
2019-06-07T16:53:59.630Z,7.90
2019-06-07T16:56:26.420Z,14.00
2019-06-07T16:58:52.708Z,10.75
2019-06-07T17:01:18.971Z,14.63
2019-06-07T17:03:45.675Z,14.58
2019-06-07T17:06:12.028Z,8.48
2019-06-07T17:08:38.388Z,10.75
2019-06-07T17:11:04.777Z,8.90
2019-06-07T17:13:33.802Z,10.58
2019-06-07T17:15:59.361Z,8.55
2019-06-07T17:18:25.652Z,10.18
2019-06-07T17:20:55.025Z,10.85
2019-06-07T17:23:21.322Z,10.18
2019-06-07T17:25:47.622Z,9.05
2019-06-07T17:28:13.966Z,11.78
2019-06-07T17:30:40.233Z,10.95
2019-06-07T17:33:08.536Z,12.90
2019-06-07T17:35:35.123Z,10.05
2019-06-07T17:38:01.318Z,8.33
2019-06-07T17:40:27.575Z,10.93
2019-06-07T17:42:53.841Z,12.35
2019-06-07T17:45:20.542Z,11.00
2019-06-07T17:47:47.772Z,13.80
2019-06-07T17:50:15.071Z,8.90
2019-06-07T17:52:41.753Z,8.73
2019-06-07T17:55:08.918Z,7.65
2019-06-07T17:57:35.189Z,10.10
2019-06-07T18:00:53.323Z,13.20
2019-06-07T18:03:02.045Z,10.48
2019-06-07T18:05:28.915Z,11.57
2019-06-07T18:07:56.410Z,11.18
2019-06-07T18:10:47.800Z,11.60
2019-06-07T18:13:20.990Z,8.63
2019-06-07T18:15:55.572Z,7.17
2019-06-07T18:18:19.609Z,13.80
2019-06-07T18:20:47.174Z,9.98
2019-06-07T18:23:13.826Z,14.75
2019-06-07T18:25:40.512Z,9.58
2019-06-07T18:28:07.367Z,7.40
2019-06-07T18:30:34.252Z,8.90
2019-06-07T18:33:00.538Z,9.73
2019-06-07T19:09:14.239Z,13.98
2019-06-07T19:14:57.508Z,8.80
2019-06-07T19:20:39.995Z,9.70
2019-06-07T19:23:06.288Z,9.48
2019-06-07T19:25:32.572Z,10.48
2019-06-07T19:27:59.232Z,10.18
2019-06-07T19:30:25.768Z,11.38
2019-06-07T19:32:53.127Z,13.60
2019-06-07T19:35:19.863Z,10.35
2019-06-07T19:37:46.221Z,13.30
2019-06-07T19:40:12.801Z,9.80
2019-06-07T19:42:39.125Z,7.35
2019-06-07T19:45:28.903Z,12.88
2019-06-07T19:47:36.264Z,8.15
2019-06-07T19:50:04.501Z,10.75
2019-06-07T19:52:30.947Z,7.40
2019-06-07T19:54:57.620Z,14.90
2019-06-07T19:57:24.136Z,8.08
2019-06-07T19:59:50.467Z,8.58
2019-06-07T20:02:16.730Z,9.83
2019-06-07T20:04:43.056Z,8.40
2019-06-07T20:07:09.374Z,15.10
2019-06-07T20:09:35.626Z,9.53
2019-06-07T20:12:02.843Z,7.70
2019-06-07T20:14:30.110Z,12.35
2019-06-07T20:16:57.160Z,10.63
2019-06-07T20:19:23.545Z,12.90
2019-06-07T20:21:49.853Z,10.53
2019-06-07T20:24:26.293Z,17.42
2019-06-07T20:26:44.590Z,12.37
2019-06-07T20:29:25.596Z,9.93
2019-06-07T20:31:39.239Z,14.83
2019-06-07T20:34:05.836Z,10.68
2019-06-07T20:36:32.344Z,10.18
2019-06-07T20:39:00.068Z,14.63
2019-06-07T20:41:26.587Z,15.70
2019-06-07T20:43:52.984Z,7.95
2019-06-07T20:46:19.795Z,11.83
2019-06-07T20:48:46.075Z,12.63
2019-06-07T20:51:12.409Z,12.35
2019-06-07T20:53:38.671Z,12.13
2019-06-07T20:56:04.922Z,19.52
2019-06-07T20:58:31.215Z,8.73
2019-06-07T21:00:58.528Z,13.93
2019-06-07T21:03:24.966Z,9.25
2019-06-07T21:05:51.248Z,11.45
2019-06-07T21:08:17.535Z,8.00
2019-06-07T21:10:43.818Z,10.08
2019-06-07T21:13:10.301Z,15.78
2019-06-07T21:17:57.586Z,9.28
2019-06-07T21:20:23.706Z,12.85
2019-06-07T21:22:49.725Z,11.53
2019-06-07T21:25:15.852Z,9.28
2019-06-07T21:27:41.747Z,9.75
2019-06-07T21:30:09.494Z,10.45
2019-06-07T21:32:35.785Z,11.43
2019-06-07T21:35:03.892Z,18.65
2019-06-07T21:37:30.380Z,7.80
2019-06-07T21:39:56.564Z,7.20
2019-06-07T21:42:22.614Z,10.65
2019-06-07T21:44:48.660Z,11.15
2019-06-07T21:47:14.678Z,12.37
2019-06-07T21:49:40.793Z,14.28
2019-06-07T21:52:06.729Z,10.58
2019-06-07T21:54:32.773Z,8.20
2019-06-07T21:56:58.711Z,8.30
2019-06-07T21:59:24.857Z,10.93
2019-06-07T22:01:51.065Z,10.65
2019-06-07T22:04:17.202Z,13.08
2019-06-07T22:06:43.335Z,13.10
2019-06-07T22:09:09.951Z,7.53
2019-06-07T22:11:36.190Z,11.95
2019-06-07T22:14:04.169Z,8.25
2019-06-07T22:16:30.441Z,9.23
2019-06-07T22:18:56.452Z,9.50
2019-06-07T22:21:22.490Z,8.70
2019-06-07T22:23:48.506Z,9.10
2019-06-07T22:26:15.600Z,9.75
2019-06-07T22:28:41.888Z,9.70
2019-06-07T22:31:08.595Z,14.15
2019-06-07T22:33:34.696Z,12.50
2019-06-07T22:36:00.708Z,15.18
2019-06-07T22:38:26.715Z,14.93
2019-06-07T22:40:52.761Z,11.38
2019-06-07T22:43:19.297Z,9.95
2019-06-07T22:45:45.428Z,17.37
2019-06-07T22:48:11.536Z,11.95
2019-06-07T22:50:37.648Z,10.05
2019-06-07T22:53:03.651Z,10.15
2019-06-07T22:55:29.665Z,8.50
2019-06-07T22:57:59.040Z,15.25
2019-06-07T23:00:27.606Z,9.25
2019-06-07T23:02:53.916Z,8.13
2019-06-07T23:05:20.040Z,12.47
2019-06-07T23:07:46.185Z,12.40
2019-06-07T23:10:13.292Z,10.82
2019-06-07T23:12:39.525Z,8.58
2019-06-07T23:15:06.449Z,10.13
2019-06-07T23:17:32.575Z,9.98
2019-06-07T23:19:58.497Z,9.25
2019-06-07T23:22:24.406Z,11.65
2019-06-07T23:24:50.329Z,10.00
2019-06-07T23:27:16.485Z,12.28
2019-06-07T23:29:42.497Z,10.32
2019-06-07T23:32:08.502Z,11.57
2019-06-07T23:34:34.619Z,10.85
2019-06-07T23:37:00.630Z,11.60
2019-06-07T23:39:26.747Z,15.98
2019-06-07T23:41:52.868Z,11.53
2019-06-07T23:44:19.344Z,17.32
2019-06-07T23:46:45.398Z,10.08
2019-06-07T23:49:12.002Z,10.28
2019-06-07T23:51:38.159Z,9.90
2019-06-07T23:54:04.344Z,10.78
2019-06-07T23:56:30.400Z,15.38
2019-06-07T23:58:56.627Z,13.05
